Time;durP1;ratioP1;P1;durP2;ratioP2;P2;SDS_P1;SDS_P2;PMS_P1;PMS_P2;Temp;Humidity;BMP_temperature;BMP_pressure;BME280_temperature;BME280_humidity;BME280_pressure;Samples;Min_cycle;Max_cycle;Signal;HPM_P1;HPM_P2
2023/07/08 00:00:52;;;;;;;5.30;2.00;;;;;;;16.80;90.16;98862.21;108830;1258;59134;-93
2023/07/08 00:03:19;;;;;;;7.20;2.00;;;;;;;16.79;89.99;98863.91;108858;1260;72274;-91
2023/07/08 00:05:48;;;;;;;4.80;2.30;;;;;;;16.80;90.15;98868.41;108873;1259;73683;-92
2023/07/08 00:08:19;;;;;;;6.90;2.80;;;;;;;16.81;90.26;98867.08;108939;1258;71620;-90
2023/07/08 00:10:47;;;;;;;5.90;2.80;;;;;;;16.80;90.07;98864.05;109008;1258;59149;-90
2023/07/08 00:13:15;;;;;;;4.90;1.90;;;;;;;16.79;89.98;98866.88;108984;1259;59865;-91
2023/07/08 00:15:43;;;;;;;5.40;2.10;;;;;;;16.75;90.02;98862.90;108321;1256;71737;-91
2023/07/08 00:18:14;;;;;;;7.00;2.40;;;;;;;16.72;89.90;98862.60;108413;1256;73194;-91
2023/07/08 00:20:47;;;;;;;6.10;2.10;;;;;;;16.70;90.09;98864.77;108743;1255;71231;-91
2023/07/08 00:23:14;;;;;;;4.00;1.90;;;;;;;16.67;90.24;98863.37;109049;1256;59282;-91
2023/07/08 00:25:42;;;;;;;5.10;1.80;;;;;;;16.65;90.51;98865.98;106976;1255;61125;-93
2023/07/08 00:28:14;;;;;;;4.60;1.70;;;;;;;16.61;90.63;98863.86;105393;1262;72733;-93
2023/07/08 00:30:43;;;;;;;10.20;2.10;;;;;;;16.59;90.95;98862.78;105427;1257;74500;-93
2023/07/08 00:33:11;;;;;;;6.10;1.80;;;;;;;16.57;91.37;98855.92;105399;1257;72630;-93
2023/07/08 00:35:40;;;;;;;3.80;1.70;;;;;;;16.55;91.56;98854.81;105791;1259;61342;-94
2023/07/08 00:38:28;;;;;;;2.50;1.80;;;;;;;16.55;91.65;98856.67;105546;1257;61156;-92
2023/07/08 00:41:04;;;;;;;7.90;2.30;;;;;;;16.54;91.56;98854.92;105411;1256;72031;-93
2023/07/08 00:43:55;;;;;;;6.10;2.20;;;;;;;16.53;91.40;98855.03;105685;1256;73105;-93
2023/07/08 00:46:31;;;;;;;3.80;1.90;;;;;;;16.53;91.40;98856.11;106226;1262;72579;-93
2023/07/08 00:49:08;;;;;;;4.00;2.50;;;;;;;16.52;91.55;98857.94;106575;1255;61022;-93
2023/07/08 00:51:39;;;;;;;3.30;2.70;;;;;;;16.53;91.47;98852.48;107182;1255;60944;-92
2023/07/08 00:57:29;;;;;;;3.40;3.00;;;;;;;16.52;90.39;98847.34;105439;1264;74483;-93
2023/07/08 01:00:11;;;;;;;3.20;2.70;;;;;;;16.49;90.32;98850.84;107422;1256;73501;-90
2023/07/08 01:02:47;;;;;;;11.20;3.00;;;;;;;16.45;90.26;98854.47;106627;1258;61156;-92
2023/07/08 01:05:22;;;;;;;3.00;2.50;;;;;;;16.39;90.12;98852.95;106652;1260;61176;-92
2023/07/08 01:07:52;;;;;;;3.50;2.60;;;;;;;16.33;89.88;98843.73;106144;1259;72311;-92
2023/07/08 01:10:23;;;;;;;7.00;2.20;;;;;;;16.29;89.60;98847.67;106369;1259;73464;-92
2023/07/08 01:12:54;;;;;;;4.20;2.30;;;;;;;16.24;89.45;98844.63;106834;1257;73460;-92
2023/07/08 01:15:24;;;;;;;4.30;1.70;;;;;;;16.20;89.48;98844.98;106378;1257;62683;-92
2023/07/08 01:17:53;;;;;;;3.40;1.60;;;;;;;16.16;89.94;98847.48;106092;1262;61301;-92
2023/07/08 01:20:21;;;;;;;2.30;1.90;;;;;;;16.14;90.25;98850.20;105904;1262;72938;-93
2023/07/08 01:22:49;;;;;;;2.40;1.90;;;;;;;16.12;90.29;98853.09;106455;1257;75241;-92
2023/07/08 01:25:19;;;;;;;3.80;1.90;;;;;;;16.09;90.08;98853.33;107129;1259;72149;-90
2023/07/08 01:27:51;;;;;;;1.70;1.50;;;;;;;16.07;90.53;98852.77;107118;1257;61071;-89
2023/07/08 01:30:21;;;;;;;;;;;;;;;16.07;91.01;98852.08;107291;1257;61129;-90
2023/07/08 01:32:50;;;;;;;2.30;1.60;;;;;;;16.06;91.25;98858.27;106898;1257;71850;-91
2023/07/08 01:35:21;;;;;;;4.10;1.70;;;;;;;16.05;91.42;98857.27;106611;1257;74279;-92
2023/07/08 01:37:54;;;;;;;4.10;1.30;;;;;;;16.06;91.44;98856.52;106950;1257;71456;-91
2023/07/08 01:40:24;;;;;;;2.90;1.70;;;;;;;16.05;91.47;98856.77;106602;1259;62102;-91
2023/07/08 01:42:52;;;;;;;4.50;2.10;;;;;;;16.05;91.53;98855.48;107291;1257;61067;-92
2023/07/08 01:45:23;;;;;;;4.80;1.90;;;;;;;16.05;91.38;98853.88;106550;1257;72217;-92
2023/07/08 01:47:56;;;;;;;2.40;1.80;;;;;;;16.04;91.14;98855.37;106934;1259;74552;-92
2023/07/08 01:50:24;;;;;;;4.50;2.70;;;;;;;16.03;90.71;98858.50;105450;1259;71454;-93
2023/07/08 01:52:54;;;;;;;3.50;2.20;;;;;;;16.02;90.03;98861.03;105663;1262;62635;-92
2023/07/08 01:55:24;;;;;;;4.50;2.30;;;;;;;15.99;89.79;98862.85;105534;1259;61310;-93
2023/07/08 01:57:52;;;;;;;6.40;2.10;;;;;;;15.97;89.77;98859.45;105650;1259;73722;-92
2023/07/08 02:00:20;;;;;;;4.30;2.40;;;;;;;15.95;89.88;98859.25;105517;1258;73822;-92
2023/07/08 02:02:49;;;;;;;3.00;1.50;;;;;;;15.93;89.99;98860.84;105782;1258;72402;-92
2023/07/08 02:05:17;;;;;;;4.10;2.30;;;;;;;15.92;90.38;98861.14;105627;1259;62309;-92
2023/07/08 02:07:45;;;;;;;4.10;1.90;;;;;;;15.91;90.67;98860.08;105653;1262;61122;-93
2023/07/08 02:10:13;;;;;;;2.70;2.10;;;;;;;15.91;90.70;98862.79;105987;1257;73552;-91
2023/07/08 02:12:41;;;;;;;4.20;1.90;;;;;;;15.90;90.73;98865.06;106191;1257;73681;-93
2023/07/08 02:15:09;;;;;;;2.20;1.60;;;;;;;15.88;90.78;98862.50;108096;1257;72508;-90
2023/07/08 02:17:36;;;;;;;3.10;1.80;;;;;;;15.86;90.95;98863.21;107346;1257;61210;-90
2023/07/08 02:20:05;;;;;;;7.30;2.00;;;;;;;15.85;91.13;98868.33;107106;1257;61065;-89
2023/07/08 02:22:32;;;;;;;5.10;1.70;;;;;;;15.85;91.40;98867.49;108072;1257;71869;-90
2023/07/08 02:25:00;;;;;;;4.30;1.50;;;;;;;15.85;91.58;98866.74;107513;1257;76130;-89
2023/07/08 02:27:27;;;;;;;2.00;1.70;;;;;;;15.86;91.64;98869.00;107239;1256;74570;-90
2023/07/08 02:29:58;;;;;;;4.50;1.80;;;;;;;15.87;91.70;98869.13;107622;1257;61059;-93
2023/07/08 02:32:26;;;;;;;2.50;1.60;;;;;;;15.87;91.57;98871.63;107313;1257;61202;-91
2023/07/08 02:34:54;;;;;;;2.90;1.90;;;;;;;15.87;91.61;98872.11;107403;1257;72189;-91
2023/07/08 02:37:21;;;;;;;2.40;2.10;;;;;;;15.88;91.48;98874.58;107307;1257;74368;-94
2023/07/08 02:39:53;;;;;;;3.30;1.90;;;;;;;15.89;91.49;98879.55;107373;1257;73813;-92
2023/07/08 02:42:23;;;;;;;9.00;2.40;;;;;;;15.89;91.11;98879.55;107048;1259;61153;-94
2023/07/08 02:44:51;;;;;;;6.60;2.50;;;;;;;15.89;91.00;98880.13;105816;1261;61140;-94
2023/07/08 02:47:18;;;;;;;4.80;2.10;;;;;;;15.88;91.03;98884.38;105530;1259;73342;-94
2023/07/08 02:49:46;;;;;;;4.00;2.20;;;;;;;15.86;90.67;98887.97;105552;1262;74482;-94
2023/07/08 02:52:14;;;;;;;2.40;1.90;;;;;;;15.83;90.50;98888.92;105578;1262;73800;-95
2023/07/08 02:54:42;;;;;;;6.10;1.90;;;;;;;15.81;90.74;98894.36;105545;1260;63237;-94
2023/07/08 02:57:13;;;;;;;5.80;2.20;;;;;;;15.78;90.86;98895.52;105387;1258;61393;-93
2023/07/08 02:59:40;;;;;;;3.70;2.00;;;;;;;15.76;91.08;98894.56;105516;1259;74695;-92
2023/07/08 03:02:09;;;;;;;3.10;1.70;;;;;;;15.73;91.08;98902.71;105638;1257;75355;-94
2023/07/08 03:04:40;;;;;;;2.60;1.70;;;;;;;15.71;91.01;98904.16;105658;1263;70924;-93
2023/07/08 03:07:12;;;;;;;3.80;1.80;;;;;;;15.68;91.20;98906.21;106193;1257;61931;-93
2023/07/08 03:09:39;;;;;;;5.30;2.50;;;;;;;15.65;91.27;98904.11;105914;1257;61145;-93
2023/07/08 03:12:08;;;;;;;2.60;1.90;;;;;;;15.64;91.62;98905.47;108067;1260;72810;-90
2023/07/08 03:14:36;;;;;;;3.10;1.70;;;;;;;15.63;91.71;98912.96;109288;1257;72866;-91
2023/07/08 03:17:04;;;;;;;8.30;2.00;;;;;;;15.63;91.88;98911.52;108041;1257;70325;-92
2023/07/08 03:19:33;;;;;;;6.00;2.00;;;;;;;15.65;92.35;98916.04;107456;1257;60963;-94
2023/07/08 03:22:02;;;;;;;3.10;1.70;;;;;;;15.67;92.43;98917.83;107032;1257;61044;-92
2023/07/08 03:24:31;;;;;;;4.30;2.00;;;;;;;15.70;92.48;98924.59;106428;1259;72122;-94
2023/07/08 03:27:04;;;;;;;6.00;1.70;;;;;;;15.74;92.45;98920.38;106068;1259;73111;-93
2023/07/08 03:29:34;;;;;;;3.10;1.80;;;;;;;15.76;92.30;98922.71;106234;1256;73136;-93
2023/07/08 03:32:03;;;;;;;4.10;1.70;;;;;;;15.78;92.38;98922.38;105988;1264;61172;-93
2023/07/08 03:34:31;;;;;;;4.50;1.60;;;;;;;15.79;92.09;98926.96;106650;1257;61005;-94
2023/07/08 03:37:07;;;;;;;2.30;1.70;;;;;;;15.80;92.02;98929.63;107502;1262;72190;-94
2023/07/08 03:39:44;;;;;;;6.50;1.90;;;;;;;15.79;92.00;98931.48;107942;1258;73902;-94
2023/07/08 03:42:15;;;;;;;7.10;2.20;;;;;;;15.79;92.25;98932.04;107909;1256;71701;-94
2023/07/08 03:44:43;;;;;;;3.90;2.30;;;;;;;15.80;92.61;98929.98;108063;1257;61247;-93
2023/07/08 03:47:18;;;;;;;3.40;2.10;;;;;;;15.82;92.76;98930.70;109009;1257;60312;-92
2023/07/08 03:49:54;;;;;;;3.60;1.80;;;;;;;15.84;92.90;98932.15;108987;1257;73937;-91
2023/07/08 03:52:40;;;;;;;3.30;2.30;;;;;;;15.88;92.75;98934.16;108782;1257;74226;-95
2023/07/08 03:55:11;;;;;;;4.80;2.10;;;;;;;15.91;92.74;98935.04;108361;1258;74869;-94
2023/07/08 03:57:42;;;;;;;6.60;2.20;;;;;;;15.94;92.61;98937.55;105932;1257;61945;-93
2023/07/08 04:01:07;;;;;;;3.60;2.00;;;;;;;15.95;92.74;98937.79;106212;1265;61098;-94
2023/07/08 04:04:42;;;;;;;2.70;1.80;;;;;;;15.99;93.28;98941.81;107900;1264;74252;-94
2023/07/08 04:07:34;;;;;;;2.40;2.30;;;;;;;16.02;93.31;98938.89;106065;1264;76039;-95
2023/07/08 04:10:34;;;;;;;3.80;1.60;;;;;;;16.05;93.33;98941.61;105090;1270;71653;-94
2023/07/08 04:13:15;;;;;;;3.30;1.90;;;;;;;16.09;93.44;98941.86;105071;1270;62482;-92
2023/07/08 04:16:06;;;;;;;2.60;2.00;;;;;;;16.11;93.53;98937.34;105158;1265;61408;-95
2023/07/08 04:19:31;;;;;;;5.20;2.10;;;;;;;16.15;93.51;98928.90;105292;1265;74631;-96
2023/07/08 04:22:03;;;;;;;5.60;2.10;;;;;;;16.18;93.83;98933.52;105263;1265;74848;-94
2023/07/08 04:29:53;;;;;;;;;;;;;;;;;;;;;
2023/07/08 05:14:47;;;;;;;;;;;;;;;;;;;;;
2023/07/08 05:45:43;;;;;;;;;;;;;;;;;;;;;
2023/07/08 05:48:42;;;;;;;4.90;3.00;;;;;;;18.03;79.28;98934.79;107766;1272;58818;-94
2023/07/08 05:52:11;;;;;;;4.50;2.40;;;;;;;18.10;78.78;98937.42;106920;1288;59919;-93
2023/07/08 05:59:44;;;;;;;4.30;2.60;;;;;;;18.25;79.09;98928.80;105663;1296;73133;-93
2023/07/08 06:02:44;;;;;;;4.70;3.10;;;;;;;18.31;78.92;98926.17;105813;1297;71895;-93
2023/07/08 06:05:32;;;;;;;3.20;2.40;;;;;;;18.37;78.72;98923.63;105595;1299;61668;-92
2023/07/08 06:08:28;;;;;;;2.80;2.40;;;;;;;18.44;78.16;98921.05;105594;1300;61357;-94
2023/07/08 06:11:30;;;;;;;4.50;2.80;;;;;;;18.51;77.57;98923.98;104755;1304;73568;-93
2023/07/08 06:14:24;;;;;;;3.20;2.40;;;;;;;18.57;76.39;98922.02;105075;1300;76598;-93
2023/07/08 06:17:26;;;;;;;3.20;2.80;;;;;;;18.64;75.91;98920.46;105579;1299;71805;-94
2023/07/08 06:21:16;;;;;;;4.30;2.80;;;;;;;18.71;75.88;98910.65;105551;1299;60042;-93
2023/07/08 06:24:09;;;;;;;3.80;2.50;;;;;;;18.79;75.83;98907.61;103269;1297;61149;-92
2023/07/08 06:26:38;;;;;;;10.20;3.20;;;;;;;18.84;75.77;98905.52;102635;1296;73496;-93
2023/07/08 06:29:05;;;;;;;7.20;3.80;;;;;;;18.88;75.62;98905.52;103033;1294;72935;-92
2023/07/08 06:31:33;;;;;;;3.70;2.50;;;;;;;18.91;75.06;98907.02;103070;1292;72543;-92
2023/07/08 06:34:01;;;;;;;9.90;8.90;;;;;;;18.93;74.43;98901.40;103285;1288;61343;-90
2023/07/08 06:36:29;;;;;;;8.10;4.30;;;;;;;18.96;74.80;98899.31;103555;1280;61147;-89
2023/07/08 06:38:56;;;;;;;2.90;2.30;;;;;;;19.00;74.87;98903.97;104370;1282;73666;-91
2023/07/08 06:41:23;;;;;;;3.30;2.20;;;;;;;19.04;74.13;98901.73;103866;1282;74274;-90
2023/07/08 06:43:51;;;;;;;4.20;2.80;;;;;;;19.09;73.44;98899.67;103914;1282;72611;-89
2023/07/08 06:46:22;;;;;;;2.50;2.10;;;;;;;19.12;73.19;98896.23;103750;1280;61491;-89
2023/07/08 06:48:49;;;;;;;3.40;2.70;;;;;;;19.18;72.91;98896.62;103962;1277;61131;-88
2023/07/08 06:51:16;;;;;;;2.60;2.20;;;;;;;19.22;72.37;98895.30;103992;1282;71530;-92
2023/07/08 06:53:43;;;;;;;2.80;2.50;;;;;;;19.26;72.18;98896.17;105417;1277;74328;-90
2023/07/08 06:56:11;;;;;;;3.40;2.20;;;;;;;19.32;72.23;98895.09;107639;1278;71124;-90
2023/07/08 06:58:38;;;;;;;3.30;1.80;;;;;;;19.37;72.01;98895.15;106485;1278;60572;-91
2023/07/08 07:01:05;;;;;;;3.70;1.90;;;;;;;19.43;71.69;98895.77;105454;1277;61695;-90
2023/07/08 07:03:32;;;;;;;4.70;2.40;;;;;;;19.49;71.42;98899.04;104486;1282;74947;-90
2023/07/08 07:06:00;;;;;;;4.40;2.10;;;;;;;19.56;71.14;98892.95;104193;1281;72968;-87
2023/07/08 07:08:27;;;;;;;5.20;2.40;;;;;;;19.61;71.21;98895.17;103876;1283;72685;-87
2023/07/08 07:10:54;;;;;;;6.70;2.30;;;;;;;19.66;71.61;98892.44;103684;1279;61145;-86
2023/07/08 07:13:22;;;;;;;3.60;2.20;;;;;;;19.71;71.26;98897.56;103969;1276;61195;-87
2023/07/08 07:15:49;;;;;;;2.90;2.20;;;;;;;19.75;70.49;98900.48;103998;1277;74766;-88
2023/07/08 07:18:23;;;;;;;;;;;;;;;19.79;69.46;98900.83;104219;1279;74196;-88
2023/07/08 07:20:52;;;;;;;3.40;2.30;;;;;;;19.83;69.25;98898.45;104892;1279;71495;-90
2023/07/08 07:23:20;;;;;;;5.90;2.80;;;;;;;19.87;69.94;98902.24;105808;1281;60786;-91
2023/07/08 07:25:48;;;;;;;2.60;2.40;;;;;;;19.94;70.13;98905.02;105067;1277;61049;-90
2023/07/08 07:28:16;;;;;;;5.40;2.40;;;;;;;20.01;69.35;98906.48;104746;1279;73988;-89
2023/07/08 07:30:45;;;;;;;5.20;2.80;;;;;;;20.08;69.45;98904.84;104470;1283;74349;-87
2023/07/08 07:33:13;;;;;;;2.30;2.10;;;;;;;20.15;69.88;98905.52;104754;1279;72043;-85
2023/07/08 07:35:44;;;;;;;2.20;2.00;;;;;;;20.24;69.61;98905.10;104874;1277;60949;-87
2023/07/08 07:38:11;;;;;;;2.30;2.10;;;;;;;20.32;69.20;98903.03;104781;1282;61513;-85
2023/07/08 07:40:39;;;;;;;3.40;3.00;;;;;;;20.39;68.77;98899.67;104641;1277;74141;-83
2023/07/08 07:43:07;;;;;;;3.20;2.10;;;;;;;20.47;67.81;98895.39;104606;1276;73109;-87
2023/07/08 07:45:34;;;;;;;2.40;2.00;;;;;;;20.55;67.22;98894.06;105089;1282;72438;-86
2023/07/08 07:48:01;;;;;;;3.20;2.00;;;;;;;20.64;66.51;98893.02;105223;1281;61192;-86
2023/07/08 07:50:30;;;;;;;1.90;1.60;;;;;;;20.73;66.57;98891.17;104666;1280;61202;-88
2023/07/08 07:52:57;;;;;;;5.30;2.50;;;;;;;20.82;66.22;98891.72;104441;1279;73586;-85
2023/07/08 07:55:25;;;;;;;2.30;1.80;;;;;;;20.90;65.20;98890.99;104480;1282;73095;-83
2023/07/08 07:57:52;;;;;;;2.40;1.90;;;;;;;20.98;64.48;98890.57;104277;1282;72492;-84
2023/07/08 08:00:19;;;;;;;2.70;2.00;;;;;;;21.05;64.13;98891.67;104323;1276;61253;-84
2023/07/08 08:02:46;;;;;;;3.90;2.40;;;;;;;21.10;64.13;98895.55;104364;1282;61272;-85
2023/07/08 08:05:13;;;;;;;3.30;1.90;;;;;;;21.16;63.80;98899.10;104185;1282;73991;-84
2023/07/08 08:07:41;;;;;;;3.90;1.90;;;;;;;21.21;63.49;98899.95;104338;1280;74395;-84
2023/07/08 08:10:08;;;;;;;2.50;1.80;;;;;;;21.27;62.69;98902.21;104683;1282;73473;-83
2023/07/08 08:12:35;;;;;;;2.50;2.10;;;;;;;21.35;61.95;98903.49;104128;1282;61208;-86
2023/07/08 08:15:19;;;;;;;3.10;1.40;;;;;;;21.41;61.79;98903.38;104279;1278;61237;-84
2023/07/08 08:17:48;;;;;;;1.80;1.70;;;;;;;21.46;61.94;98900.65;105268;1282;72674;-85
2023/07/08 08:20:16;;;;;;;3.30;1.90;;;;;;;21.53;62.10;98901.77;105489;1279;74792;-85
2023/07/08 08:22:44;;;;;;;5.80;2.20;;;;;;;21.59;62.72;98901.27;104371;1282;72646;-84
2023/07/08 08:25:11;;;;;;;2.20;2.00;;;;;;;21.65;62.37;98905.69;104406;1282;61251;-85
2023/07/08 08:27:38;;;;;;;2.10;1.80;;;;;;;21.72;61.94;98907.52;104208;1279;61070;-85
2023/07/08 08:30:06;;;;;;;2.60;2.10;;;;;;;21.78;61.38;98906.32;104092;1282;72392;-87
2023/07/08 08:32:34;;;;;;;3.00;1.70;;;;;;;21.85;60.12;98903.05;104842;1282;73703;-85
2023/07/08 08:35:01;;;;;;;2.50;2.10;;;;;;;21.91;59.30;98906.41;104853;1281;72044;-86
2023/07/08 08:37:29;;;;;;;3.50;1.90;;;;;;;21.97;59.03;98911.70;104170;1290;61287;-84
2023/07/08 08:39:56;;;;;;;2.50;1.60;;;;;;;22.03;58.04;98912.77;103694;1283;61422;-85
2023/07/08 08:42:33;;;;;;;2.00;1.60;;;;;;;22.09;57.28;98912.00;103771;1280;74483;-85
2023/07/08 08:45:01;;;;;;;2.60;2.00;;;;;;;22.13;57.11;98909.48;104070;1280;72333;-86
2023/07/08 08:47:42;;;;;;;2.60;1.80;;;;;;;22.16;57.06;98907.50;104585;1281;72147;-85
2023/07/08 08:50:29;;;;;;;2.80;1.90;;;;;;;22.19;56.67;98904.05;104449;1281;61160;-86
2023/07/08 08:53:00;;;;;;;2.50;2.00;;;;;;;22.23;56.73;98906.73;104017;1280;61209;-84
2023/07/08 08:55:28;;;;;;;2.50;1.40;;;;;;;22.27;55.98;98904.46;104476;1282;74436;-85
2023/07/08 08:58:13;;;;;;;3.50;1.90;;;;;;;22.31;55.19;98903.46;104224;1282;74672;-83
2023/07/08 09:00:56;;;;;;;2.40;2.00;;;;;;;22.37;55.25;98901.79;104204;1282;72199;-84
2023/07/08 09:03:45;;;;;;;1.80;1.70;;;;;;;22.44;56.42;98896.14;104187;1282;61235;-85
2023/07/08 09:06:25;;;;;;;2.00;1.50;;;;;;;22.51;56.78;98893.98;103987;1280;61191;-85
2023/07/08 09:08:52;;;;;;;1.80;1.60;;;;;;;22.62;57.54;98892.23;104114;1282;75164;-85
2023/07/08 09:11:35;;;;;;;2.10;1.60;;;;;;;22.72;56.94;98884.73;104037;1282;74421;-84
2023/07/08 09:14:02;;;;;;;2.00;1.80;;;;;;;22.84;56.75;98882.69;105077;1277;71563;-86
2023/07/08 09:16:34;;;;;;;2.30;2.10;;;;;;;22.96;57.01;98885.86;103965;1281;61064;-85
2023/07/08 09:19:22;;;;;;;4.30;1.60;;;;;;;23.09;56.49;98884.45;104162;1277;61512;-86
2023/07/08 09:21:54;;;;;;;3.00;2.00;;;;;;;23.22;56.14;98883.78;104401;1282;74743;-84
2023/07/08 09:25:03;;;;;;;2.60;1.60;;;;;;;23.33;54.61;98891.44;105098;1277;75312;-85
2023/07/08 09:27:31;;;;;;;1.30;1.20;;;;;;;23.41;53.58;98893.61;104922;1282;72014;-85
2023/07/08 09:29:58;;;;;;;2.90;2.10;;;;;;;23.43;52.92;98897.41;104658;1282;61126;-84
2023/07/08 09:32:27;;;;;;;4.00;2.00;;;;;;;23.44;52.34;98895.05;104840;1282;61195;-84
2023/07/08 09:35:05;;;;;;;3.30;1.80;;;;;;;23.45;52.72;98894.52;104953;1280;72655;-85
2023/07/08 09:37:36;;;;;;;2.40;2.00;;;;;;;23.49;53.24;98898.16;105234;1282;73179;-86
2023/07/08 09:40:20;;;;;;;1.60;1.50;;;;;;;23.53;52.15;98897.02;104849;1281;72483;-85
2023/07/08 09:42:51;;;;;;;;;;;;;;;23.56;50.57;98897.39;105599;1280;61103;-85
2023/07/08 09:45:21;;;;;;;4.20;1.90;;;;;;;23.56;50.67;98898.80;106653;1278;59175;-84
2023/07/08 09:47:51;;;;;;;2.20;1.90;;;;;;;23.56;50.39;98897.69;106623;1276;73008;-85
2023/07/08 09:50:24;;;;;;;3.70;1.70;;;;;;;23.60;50.44;98897.27;106071;1284;73619;-86
2023/07/08 09:52:55;;;;;;;2.30;1.70;;;;;;;23.65;50.53;98894.52;105932;1281;72533;-85
2023/07/08 09:55:27;;;;;;;5.40;1.70;;;;;;;23.73;50.42;98889.87;106603;1280;60303;-84
2023/07/08 09:57:54;;;;;;;2.70;1.70;;;;;;;23.84;51.38;98891.24;106783;1276;60732;-83
2023/07/08 10:00:41;;;;;;;2.70;1.70;;;;;;;23.98;51.75;98882.59;106503;1276;72633;-85
2023/07/08 10:03:37;;;;;;;3.30;1.70;;;;;;;24.14;51.74;98879.65;106328;1282;73022;-84
2023/07/08 10:06:21;;;;;;;2.70;1.60;;;;;;;24.31;49.20;98877.77;105819;1281;72755;-84
2023/07/08 10:08:49;;;;;;;3.10;1.60;;;;;;;24.46;49.23;98881.37;104640;1276;61573;-86
2023/07/08 10:11:30;;;;;;;1.90;1.50;;;;;;;24.60;49.10;98883.15;106376;1276;60965;-85
2023/07/08 10:14:11;;;;;;;3.10;1.70;;;;;;;24.76;48.84;98879.39;105098;1282;73844;-87
2023/07/08 10:16:41;;;;;;;2.60;1.40;;;;;;;24.92;47.63;98874.18;107144;1276;73017;-85
2023/07/08 10:19:17;;;;;;;3.20;2.10;;;;;;;25.06;47.45;98870.97;106348;1279;71878;-85
2023/07/08 10:21:48;;;;;;;3.90;1.80;;;;;;;25.23;47.60;98874.94;107200;1279;61026;-85
2023/07/08 10:24:25;;;;;;;2.40;1.80;;;;;;;25.40;47.95;98874.57;107010;1277;61160;-86
2023/07/08 10:27:10;;;;;;;1.80;1.50;;;;;;;25.57;47.56;98874.29;106659;1282;72442;-86
2023/07/08 10:29:49;;;;;;;3.70;2.00;;;;;;;25.75;46.11;98865.33;106418;1277;72553;-85
2023/07/08 10:32:30;;;;;;;2.40;1.70;;;;;;;25.90;46.75;98864.96;106454;1278;71663;-87
2023/07/08 10:35:15;;;;;;;4.40;1.50;;;;;;;26.10;46.39;98862.37;106612;1279;61237;-86
2023/07/08 10:37:51;;;;;;;2.20;1.70;;;;;;;26.33;46.59;98856.55;105869;1276;61539;-86
2023/07/08 10:40:36;;;;;;;3.10;1.80;;;;;;;26.55;45.58;98855.70;107520;1279;74727;-86
2023/07/08 10:43:42;;;;;;;1.80;1.70;;;;;;;26.78;44.16;98843.91;107699;1277;74458;-86
2023/07/08 10:46:22;;;;;;;2.90;2.00;;;;;;;27.01;43.78;98847.56;107030;1282;71524;-87
2023/07/08 10:49:07;;;;;;;2.10;1.90;;;;;;;27.20;42.77;98846.53;107009;1283;58878;-86
2023/07/08 10:51:53;;;;;;;1.80;1.60;;;;;;;27.38;41.12;98844.02;106659;1282;60408;-87
2023/07/08 10:54:32;;;;;;;3.20;2.00;;;;;;;27.48;41.55;98842.30;106894;1283;72295;-87
2023/07/08 10:57:09;;;;;;;4.30;1.50;;;;;;;27.55;42.47;98838.41;107040;1283;74305;-88
2023/07/08 10:59:44;;;;;;;3.40;1.80;;;;;;;27.63;42.23;98836.23;106219;1283;71327;-86
2023/07/08 11:02:42;;;;;;;2.80;2.10;;;;;;;27.66;41.71;98838.63;106844;1283;58857;-87
2023/07/08 11:05:24;;;;;;;5.00;2.30;;;;;;;27.54;41.23;98832.09;106331;1282;61509;-87
2023/07/08 11:07:57;;;;;;;3.40;1.90;;;;;;;27.42;41.23;98828.60;106994;1285;72888;-86
2023/07/08 11:10:37;;;;;;;2.20;2.00;;;;;;;27.36;41.55;98830.30;106700;1283;74371;-86
2023/07/08 11:13:06;;;;;;;2.20;1.70;;;;;;;27.31;41.45;98823.02;106089;1283;71833;-88
2023/07/08 11:16:01;;;;;;;2.40;2.00;;;;;;;27.39;41.87;98824.22;106791;1282;61091;-85
2023/07/08 11:18:37;;;;;;;2.10;1.40;;;;;;;27.58;40.85;98827.06;106121;1290;58921;-84
2023/07/08 11:21:08;;;;;;;2.50;1.90;;;;;;;27.78;39.83;98821.95;105070;1294;73959;-84
2023/07/08 11:23:58;;;;;;;2.80;1.60;;;;;;;27.98;39.24;98816.92;105084;1287;74586;-84
2023/07/08 11:26:29;;;;;;;2.30;2.10;;;;;;;28.17;39.36;98813.02;104295;1288;73085;-85
2023/07/08 11:29:00;;;;;;;1.50;1.40;;;;;;;28.34;39.21;98817.42;105395;1287;60922;-83
2023/07/08 11:31:31;;;;;;;2.10;1.70;;;;;;;28.55;38.49;98818.71;105932;1290;60189;-84
2023/07/08 11:33:58;;;;;;;6.00;1.70;;;;;;;28.75;37.98;98813.28;105518;1288;72466;-84
2023/07/08 11:36:26;;;;;;;1.80;1.60;;;;;;;28.98;37.47;98813.16;106011;1286;74448;-85
2023/07/08 11:38:55;;;;;;;2.40;1.80;;;;;;;29.18;36.29;98809.71;106132;1287;72708;-84
2023/07/08 11:41:28;;;;;;;3.20;1.60;;;;;;;29.34;35.60;98811.02;105794;1285;61468;-85
2023/07/08 11:44:00;;;;;;;2.70;1.40;;;;;;;29.48;35.54;98810.10;105578;1287;61217;-86
2023/07/08 11:46:32;;;;;;;4.60;1.90;;;;;;;29.65;35.32;98804.96;105164;1286;72931;-86
2023/07/08 11:49:10;;;;;;;2.00;1.70;;;;;;;29.83;35.74;98809.20;105325;1286;73995;-84
2023/07/08 11:51:39;;;;;;;2.00;1.40;;;;;;;30.06;35.68;98809.41;105857;1287;73555;-86
2023/07/08 11:54:30;;;;;;;3.10;1.30;;;;;;;30.30;35.09;98808.67;106537;1285;60390;-82
2023/07/08 11:57:18;;;;;;;1.30;1.20;;;;;;;30.56;34.44;98806.98;106263;1277;105880;-83
2023/07/08 11:59:46;;;;;;;1.30;1.20;;;;;;;30.78;33.94;98797.80;106329;1277;73037;-83
2023/07/08 12:02:19;;;;;;;1.00;0.90;;;;;;;31.00;33.80;98799.14;106253;1280;74458;-82
2023/07/08 12:04:59;;;;;;;1.90;1.40;;;;;;;31.21;33.49;98800.21;105808;1279;72540;-82
2023/07/08 12:07:57;;;;;;;2.50;1.50;;;;;;;31.43;33.66;98795.05;105391;1283;61176;-82
2023/07/08 12:10:38;;;;;;;1.50;1.40;;;;;;;31.64;32.81;98793.19;106132;1281;61054;-81
2023/07/08 12:13:14;;;;;;;2.40;1.40;;;;;;;31.78;32.46;98786.08;106184;1282;74006;-83
2023/07/08 12:15:41;;;;;;;2.40;1.90;;;;;;;31.83;32.25;98790.83;105971;1280;74524;-84
2023/07/08 12:18:09;;;;;;;2.60;1.70;;;;;;;31.85;31.77;98787.90;105657;1279;72415;-82
2023/07/08 12:20:38;;;;;;;4.40;1.50;;;;;;;31.79;31.76;98786.78;105180;1280;61216;-82
2023/07/08 12:23:14;;;;;;;2.90;1.40;;;;;;;31.78;31.86;98784.08;106773;1279;61668;-82
2023/07/08 12:25:41;;;;;;;1.70;1.30;;;;;;;31.80;31.89;98782.04;106868;1280;72646;-83
2023/07/08 12:28:12;;;;;;;1.50;1.40;;;;;;;31.90;32.09;98787.19;106280;1276;74107;-83
2023/07/08 12:30:40;;;;;;;2.80;1.40;;;;;;;32.03;31.46;98787.21;105926;1279;72631;-82
2023/07/08 12:33:25;;;;;;;2.90;1.20;;;;;;;32.17;31.11;98779.11;105670;1277;60975;-82
2023/07/08 12:35:52;;;;;;;1.80;1.50;;;;;;;32.32;30.54;98775.93;106417;1278;61138;-82
2023/07/08 12:38:22;;;;;;;1.70;1.50;;;;;;;32.37;30.34;98772.79;106144;1279;74772;-82
2023/07/08 12:40:50;;;;;;;1.70;1.40;;;;;;;32.49;30.03;98773.73;105838;1280;73519;-81
2023/07/08 12:43:20;;;;;;;2.00;1.30;;;;;;;32.58;30.61;98774.02;105745;1283;73903;-82
2023/07/08 12:45:47;;;;;;;2.10;1.40;;;;;;;32.69;30.85;98770.14;106243;1280;61132;-83
2023/07/08 12:48:15;;;;;;;1.40;1.30;;;;;;;32.85;30.31;98765.48;106623;1279;60881;-83
2023/07/08 12:50:42;;;;;;;2.30;1.60;;;;;;;33.04;30.08;98765.82;106752;1278;73879;-82
2023/07/08 12:53:12;;;;;;;1.80;1.70;;;;;;;33.19;29.92;98765.34;106706;1279;73079;-82
2023/07/08 12:55:40;;;;;;;3.10;1.50;;;;;;;33.28;29.60;98766.77;106732;1277;71825;-83
2023/07/08 12:58:12;;;;;;;2.70;1.20;;;;;;;33.35;29.55;98767.75;106755;1279;61149;-82
2023/07/08 13:00:40;;;;;;;2.80;1.30;;;;;;;33.38;29.72;98765.68;106297;1276;60415;-83
2023/07/08 13:03:14;;;;;;;1.60;1.30;;;;;;;33.44;29.49;98764.09;106728;1279;73917;-83
2023/07/08 13:05:42;;;;;;;1.40;1.30;;;;;;;33.56;29.25;98762.93;106642;1278;72426;-82
2023/07/08 13:08:13;;;;;;;1.50;1.40;;;;;;;33.68;29.15;98757.97;106208;1280;72656;-82
2023/07/08 13:10:42;;;;;;;1.70;1.30;;;;;;;33.76;29.42;98756.52;106261;1280;61133;-82
2023/07/08 13:13:20;;;;;;;2.10;2.00;;;;;;;33.76;29.16;98757.68;106578;1280;62380;-82
2023/07/08 13:15:49;;;;;;;3.20;1.10;;;;;;;33.64;28.49;98756.46;106564;1279;72642;-83
2023/07/08 13:18:20;;;;;;;2.70;1.40;;;;;;;33.44;29.02;98758.36;105333;1278;75450;-85
2023/07/08 13:20:53;;;;;;;4.10;1.70;;;;;;;33.33;29.28;98757.64;104268;1282;72578;-83
2023/07/08 13:23:21;;;;;;;4.10;1.70;;;;;;;33.27;29.44;98758.89;104225;1282;61275;-82
2023/07/08 13:25:49;;;;;;;2.20;1.30;;;;;;;33.32;29.52;98754.20;104076;1283;61120;-83